createdAt,value
2023-04-20T00:01:58.871Z,87.56
2023-04-20T00:07:00.529Z,87.33
2023-04-20T00:12:02.179Z,87.89
2023-04-20T00:17:03.946Z,88.21
2023-04-20T00:22:05.729Z,87.93
2023-04-20T00:27:07.340Z,87.74
2023-04-20T00:32:08.922Z,87.72
2023-04-20T00:37:10.537Z,88.15
2023-04-20T00:42:12.128Z,88.66
2023-04-20T00:47:13.686Z,87.71
2023-04-20T00:52:15.551Z,87.23
2023-04-20T00:57:19.047Z,87.89
2023-04-20T01:02:20.752Z,87.56
2023-04-20T01:07:22.654Z,87.20
2023-04-20T01:12:24.327Z,86.76
2023-04-20T01:17:25.941Z,86.35
2023-04-20T01:22:27.578Z,86.45
2023-04-20T01:27:29.201Z,85.92
2023-04-20T01:32:31.703Z,86.19
2023-04-20T01:37:34.186Z,86.47
2023-04-20T01:42:38.084Z,86.99
2023-04-20T01:47:39.647Z,86.42
2023-04-20T01:52:41.912Z,85.30
2023-04-20T01:57:44.768Z,86.45
2023-04-20T02:02:46.491Z,86.90
2023-04-20T02:07:48.182Z,87.98
2023-04-20T02:12:50.464Z,87.93
2023-04-20T02:17:52.451Z,88.21
2023-04-20T02:22:54.430Z,87.83
2023-04-20T02:27:56.156Z,87.53
2023-04-20T02:32:57.850Z,87.31
2023-04-20T02:37:59.586Z,86.92
2023-04-20T02:43:01.225Z,87.35
2023-04-20T02:48:03.651Z,86.75
2023-04-20T02:53:06.753Z,87.98
2023-04-20T02:58:11.165Z,86.85
2023-04-20T03:03:33.159Z,87.09
2023-04-20T03:08:35.410Z,87.62
2023-04-20T03:13:55.710Z,88.29
2023-04-20T03:18:57.460Z,88.00
2023-04-20T03:24:00.177Z,88.12
2023-04-20T03:29:02.346Z,87.14
2023-04-20T03:34:04.898Z,87.32
2023-04-20T03:39:07.053Z,87.31
2023-04-20T03:44:08.640Z,87.37
2023-04-20T03:49:11.921Z,86.93
2023-04-20T03:54:15.424Z,85.83
2023-04-20T03:59:17.783Z,87.27
2023-04-20T04:04:24.163Z,87.31
2023-04-20T04:09:26.621Z,87.25
2023-04-20T04:14:30.128Z,87.23
2023-04-20T04:19:32.652Z,86.86
2023-04-20T04:24:37.743Z,87.21
2023-04-20T04:29:42.620Z,87.28
2023-04-20T04:34:50.270Z,87.87
2023-04-20T04:39:52.277Z,87.70
2023-04-20T04:45:01.840Z,87.89
2023-04-20T04:50:07.195Z,86.82
2023-04-20T04:55:09.782Z,87.63
2023-04-20T05:00:12.797Z,87.58
2023-04-20T05:05:14.847Z,86.63
2023-04-20T05:10:16.695Z,87.07
2023-04-20T05:15:18.618Z,87.37
2023-04-20T05:20:20.694Z,87.17
2023-04-20T05:25:22.433Z,87.39
2023-04-20T05:30:24.034Z,87.17
2023-04-20T05:35:25.617Z,87.61
2023-04-20T05:40:27.209Z,86.94
2023-04-20T05:45:28.920Z,86.51
2023-04-20T05:50:31.142Z,86.53
2023-04-20T05:55:33.332Z,86.24
2023-04-20T06:00:35.658Z,85.89
2023-04-20T06:05:37.391Z,86.04
2023-04-20T06:10:39.825Z,85.11
2023-04-20T06:15:41.614Z,84.66
2023-04-20T06:20:44.144Z,85.97
2023-04-20T06:25:45.698Z,86.09
2023-04-20T06:30:47.293Z,85.42
2023-04-20T06:35:48.853Z,84.45
2023-04-20T06:40:50.571Z,84.63
2023-04-20T06:45:52.111Z,85.15
2023-04-20T06:50:53.712Z,84.05
2023-04-20T06:55:55.750Z,84.58
2023-04-20T07:00:57.404Z,84.57
2023-04-20T07:05:59.010Z,85.29
2023-04-20T07:11:00.916Z,84.80
2023-04-20T07:16:02.794Z,84.65
2023-04-20T07:21:04.419Z,84.96
2023-04-20T07:26:06.254Z,84.82
2023-04-20T07:31:07.792Z,84.37
2023-04-20T07:36:09.588Z,83.91
2023-04-20T07:41:11.625Z,83.85
2023-04-20T07:46:20.883Z,83.40
2023-04-20T07:51:22.512Z,82.68
2023-04-20T07:56:24.110Z,82.67
2023-04-20T08:01:26.268Z,83.03
2023-04-20T08:06:28.036Z,82.63
2023-04-20T08:11:29.639Z,81.93
2023-04-20T08:16:31.337Z,82.71
2023-04-20T08:21:32.917Z,82.53
2023-04-20T08:26:35.108Z,82.01
2023-04-20T08:31:37.051Z,81.50
2023-04-20T08:36:38.674Z,81.53
2023-04-20T08:41:40.350Z,82.21
2023-04-20T08:46:44.029Z,81.34
2023-04-20T08:51:48.289Z,81.54
2023-04-20T08:56:49.905Z,81.68
2023-04-20T09:01:51.584Z,82.11
2023-04-20T09:06:55.683Z,83.72
2023-04-20T09:12:04.873Z,82.35
2023-04-20T09:17:06.473Z,81.80
2023-04-20T09:22:08.069Z,82.16
2023-04-20T09:27:19.095Z,83.56
2023-04-20T09:32:25.395Z,84.45
2023-04-20T09:37:27.121Z,83.17
2023-04-20T09:42:28.952Z,83.61
2023-04-20T09:47:30.952Z,83.57
2023-04-20T09:52:33.404Z,84.48
2023-04-20T09:57:35.539Z,84.12
2023-04-20T10:02:37.863Z,84.25
2023-04-20T10:07:39.551Z,85.42
2023-04-20T10:12:51.207Z,86.39
2023-04-20T10:17:53.270Z,86.30
2023-04-20T10:23:07.475Z,87.01
2023-04-20T10:28:10.904Z,87.72
2023-04-20T10:33:13.271Z,87.73
2023-04-20T10:38:16.373Z,87.54
2023-04-20T10:43:21.098Z,87.36
2023-04-20T10:48:22.717Z,86.80
2023-04-20T10:53:24.351Z,86.71
2023-04-20T10:58:26.209Z,86.09
2023-04-20T11:03:29.352Z,85.02
2023-04-20T11:08:40.806Z,84.85
2023-04-20T11:13:42.420Z,86.28
2023-04-20T11:18:50.330Z,86.55
2023-04-20T11:23:51.936Z,86.04
2023-04-20T11:28:55.969Z,86.03
2023-04-20T11:33:58.492Z,85.48
2023-04-20T11:39:09.995Z,85.34
2023-04-20T11:44:11.638Z,86.14
2023-04-20T11:49:13.518Z,85.57
2023-04-20T11:54:15.595Z,85.33
2023-04-20T11:59:20.152Z,85.85
2023-04-20T12:04:22.452Z,85.67
2023-04-20T12:09:24.298Z,86.09
2023-04-20T12:14:27.219Z,85.76
2023-04-20T12:19:28.826Z,87.26
2023-04-20T12:24:30.468Z,86.25
2023-04-20T12:29:33.111Z,86.47
2023-04-20T12:34:34.733Z,86.07
2023-04-20T12:39:36.548Z,86.59
2023-04-20T12:44:38.101Z,86.60
2023-04-20T12:49:39.669Z,86.09
2023-04-20T12:54:43.893Z,86.99
2023-04-20T12:59:48.589Z,86.72
2023-04-20T13:04:50.677Z,86.25
2023-04-20T13:09:52.200Z,86.59
2023-04-20T13:14:53.744Z,87.01
2023-04-20T13:19:55.336Z,87.49
2023-04-20T13:24:56.946Z,87.23
2023-04-20T13:29:59.457Z,88.49
2023-04-20T13:35:01.043Z,88.07
2023-04-20T13:40:02.675Z,88.88
2023-04-20T13:45:05.286Z,88.86
2023-04-20T13:50:10.661Z,88.22
2023-04-20T13:55:12.278Z,88.26
2023-04-20T14:00:14.584Z,87.42
2023-04-20T14:05:16.365Z,88.35
2023-04-20T14:10:18.012Z,86.99
2023-04-20T14:15:19.777Z,86.72
2023-04-20T14:20:21.464Z,85.38
2023-04-20T14:25:23.103Z,86.05
2023-04-20T14:30:24.895Z,86.11
2023-04-20T14:35:28.222Z,86.31
2023-04-20T14:40:30.635Z,85.91
2023-04-20T14:45:32.200Z,86.44
2023-04-20T14:50:33.815Z,85.53
2023-04-20T14:55:35.452Z,86.00
2023-04-20T15:00:36.989Z,86.35
2023-04-20T15:05:38.750Z,85.79
2023-04-20T15:10:40.371Z,85.92
2023-04-20T15:20:51.428Z,86.16
2023-04-20T15:25:53.005Z,85.51
2023-04-20T15:30:54.594Z,85.37
2023-04-20T15:35:56.253Z,85.20
2023-04-20T15:40:58.780Z,85.92
2023-04-20T15:46:00.462Z,85.87
2023-04-20T15:51:04.003Z,86.34
2023-04-20T15:56:05.684Z,86.56
2023-04-20T16:01:07.439Z,86.49
2023-04-20T16:06:09.048Z,87.42
2023-04-20T16:11:10.685Z,87.44
2023-04-20T16:16:12.312Z,87.58
2023-04-20T16:21:14.479Z,87.67
2023-04-20T16:26:16.590Z,87.68
2023-04-20T16:31:18.313Z,86.36
2023-04-20T16:36:20.756Z,85.00
2023-04-20T16:41:23.082Z,80.81
2023-04-20T16:46:24.806Z,80.44
2023-04-20T16:51:27.218Z,80.07
2023-04-20T16:56:28.877Z,79.56
2023-04-20T17:01:30.549Z,79.64
2023-04-20T17:06:32.206Z,79.77
2023-04-20T17:11:38.773Z,78.89
2023-04-20T17:16:40.429Z,78.60
2023-04-20T17:21:43.980Z,79.11
2023-04-20T17:26:46.418Z,78.54
2023-04-20T17:31:48.009Z,78.66
2023-04-20T17:36:49.612Z,79.12
2023-04-20T17:41:51.186Z,78.75
2023-04-20T17:46:52.764Z,79.18
2023-04-20T17:51:54.499Z,79.96
2023-04-20T17:56:57.983Z,80.23
2023-04-20T18:01:59.730Z,81.00
2023-04-20T18:07:01.472Z,82.26
2023-04-20T18:12:03.224Z,82.92
2023-04-20T18:17:04.881Z,83.89
2023-04-20T18:22:07.431Z,84.48
2023-04-20T18:27:09.255Z,84.27
2023-04-20T18:32:10.817Z,84.59
2023-04-20T18:37:12.556Z,85.24
2023-04-20T18:42:14.147Z,86.38
2023-04-20T18:47:17.047Z,86.00
2023-04-20T18:52:19.373Z,85.95
2023-04-20T18:57:25.971Z,86.04
2023-04-20T19:02:27.763Z,85.48
2023-04-20T19:07:29.542Z,84.63
2023-04-20T19:12:32.477Z,84.39
2023-04-20T19:17:34.917Z,84.41
2023-04-20T19:22:36.519Z,84.33
2023-04-20T19:27:38.142Z,84.30
2023-04-20T19:32:39.983Z,84.79
2023-04-20T19:37:41.628Z,84.52
2023-04-20T19:42:43.311Z,84.21
2023-04-20T19:47:45.357Z,83.73
2023-04-20T19:52:46.975Z,84.21
2023-04-20T19:57:48.696Z,83.97
2023-04-20T20:02:50.535Z,83.86
2023-04-20T20:07:52.768Z,84.10
2023-04-20T20:12:54.346Z,84.09
2023-04-20T20:17:58.236Z,84.48
2023-04-20T20:23:00.398Z,84.74
2023-04-20T20:28:02.059Z,84.95
2023-04-20T20:33:03.913Z,85.18
2023-04-20T20:38:08.899Z,85.43
2023-04-20T20:43:10.639Z,86.02
2023-04-20T20:48:12.351Z,85.71
2023-04-20T20:53:14.997Z,85.68
2023-04-20T20:58:16.519Z,86.03
2023-04-20T21:03:18.897Z,85.49
2023-04-20T21:08:20.701Z,85.63
2023-04-20T21:13:22.283Z,86.11
2023-04-20T21:18:23.879Z,85.67
2023-04-20T21:23:25.847Z,86.51
2023-04-20T21:28:27.438Z,86.47
2023-04-20T21:33:29.114Z,87.36
2023-04-20T21:38:30.722Z,87.92
2023-04-20T21:43:32.323Z,88.31
2023-04-20T21:48:33.916Z,88.64
2023-04-20T21:53:35.724Z,88.84
2023-04-20T21:58:37.358Z,88.46
2023-04-20T22:03:39.060Z,88.93
2023-04-20T22:08:41.914Z,89.73
2023-04-20T22:13:44.578Z,90.32
2023-04-20T22:18:46.240Z,89.81
2023-04-20T22:23:47.813Z,90.46
2023-04-20T22:28:49.612Z,90.22
2023-04-20T22:33:51.183Z,90.19
2023-04-20T22:38:52.843Z,91.88
2023-04-20T22:43:54.482Z,91.38
2023-04-20T22:48:56.768Z,92.67
2023-04-20T22:54:00.287Z,93.28
2023-04-20T22:59:02.064Z,94.27
2023-04-20T23:04:04.003Z,94.02
2023-04-20T23:09:08.561Z,94.04
2023-04-20T23:14:10.861Z,93.49
2023-04-20T23:19:12.436Z,94.44
2023-04-20T23:24:14.039Z,93.71
2023-04-20T23:29:15.954Z,94.30
2023-04-20T23:34:17.652Z,95.03
2023-04-20T23:39:20.248Z,95.55
2023-04-20T23:44:22.018Z,96.03
2023-04-20T23:49:23.623Z,95.50
2023-04-20T23:54:25.424Z,95.82
2023-04-20T23:59:27.058Z,97.49
